createdAt,value
2023-02-11T00:01:35.646Z,15.70
2023-02-11T00:04:05.138Z,14.27
2023-02-11T00:06:34.540Z,13.70
2023-02-11T00:09:03.274Z,12.50
2023-02-11T00:11:31.016Z,14.65
2023-02-11T00:14:05.036Z,16.05
2023-02-11T00:16:33.017Z,18.50
2023-02-11T00:19:02.095Z,22.05
2023-02-11T00:21:30.113Z,15.50
2023-02-11T00:24:01.792Z,13.98
2023-02-11T00:26:35.575Z,16.35
2023-02-11T00:29:05.158Z,17.77
2023-02-11T00:31:33.877Z,10.70
2023-02-11T00:34:01.985Z,17.27
2023-02-11T00:36:30.638Z,12.32
2023-02-11T00:39:00.025Z,10.35
2023-02-11T00:41:29.323Z,20.25
2023-02-11T00:43:57.175Z,14.65
2023-02-11T00:46:25.036Z,17.50
2023-02-11T00:48:55.183Z,20.38
2023-02-11T00:51:23.071Z,15.07
2023-02-11T00:53:51.775Z,13.02
2023-02-11T00:56:19.822Z,15.20
2023-02-11T00:58:47.697Z,15.00
2023-02-11T01:01:15.424Z,17.35
2023-02-11T01:03:43.909Z,21.88
2023-02-11T01:06:12.426Z,15.25
2023-02-11T01:08:40.389Z,21.73
2023-02-11T01:11:19.000Z,16.55
2023-02-11T01:13:48.636Z,12.32
2023-02-11T01:16:17.137Z,16.08
2023-02-11T01:18:46.741Z,20.55
2023-02-11T01:21:14.956Z,16.75
2023-02-11T01:23:44.281Z,11.45
2023-02-11T01:26:13.050Z,15.18
2023-02-11T01:28:40.763Z,12.35
2023-02-11T01:31:08.506Z,13.27
2023-02-11T01:33:36.345Z,19.08
2023-02-11T01:36:07.732Z,19.75
2023-02-11T01:38:36.145Z,18.55
2023-02-11T01:41:09.018Z,12.23
2023-02-11T01:43:42.796Z,14.50
2023-02-11T01:46:36.216Z,19.00
2023-02-11T01:49:16.202Z,16.23
2023-02-11T01:51:54.069Z,11.30
2023-02-11T01:54:47.056Z,22.13
2023-02-11T01:57:22.950Z,12.60
2023-02-11T02:00:24.287Z,16.35
2023-02-11T02:03:06.413Z,14.50
2023-02-11T02:06:12.771Z,17.73
2023-02-11T02:09:04.484Z,21.38
2023-02-11T02:11:32.332Z,12.63
2023-02-11T02:13:59.988Z,18.48
2023-02-11T02:16:35.060Z,22.52
2023-02-11T02:19:24.232Z,23.85
2023-02-11T02:22:25.139Z,14.82
2023-02-11T02:26:10.245Z,13.38
2023-02-11T02:29:11.862Z,13.25
2023-02-11T02:31:51.455Z,10.20
2023-02-11T02:34:54.045Z,11.63
2023-02-11T02:37:32.441Z,15.98
2023-02-11T02:40:07.140Z,15.43
2023-02-11T02:42:35.561Z,11.07
2023-02-11T02:45:03.509Z,18.55
2023-02-11T02:47:31.151Z,11.80
2023-02-11T02:49:58.946Z,18.58
2023-02-11T02:52:42.958Z,17.65
2023-02-11T02:55:39.857Z,16.60
2023-02-11T02:58:25.538Z,14.38
2023-02-11T03:01:13.309Z,14.00
2023-02-11T03:03:52.832Z,15.50
2023-02-11T03:06:48.823Z,12.93
2023-02-11T03:09:34.961Z,12.98
2023-02-11T03:14:32.601Z,16.00
2023-02-11T03:17:03.612Z,12.00
2023-02-11T03:19:43.377Z,17.00
2023-02-11T03:22:23.214Z,12.52
2023-02-11T03:24:51.198Z,12.20
2023-02-11T03:27:43.427Z,15.10
2023-02-11T03:30:13.900Z,13.13
2023-02-11T03:32:52.749Z,9.60
2023-02-11T03:35:31.996Z,14.27
2023-02-11T03:38:42.282Z,10.93
2023-02-11T03:41:10.841Z,15.35
2023-02-11T03:43:48.047Z,12.27
2023-02-11T03:46:19.967Z,11.07
2023-02-11T03:48:53.064Z,11.15
2023-02-11T03:51:22.726Z,14.23
2023-02-11T03:53:53.284Z,11.82
2023-02-11T03:56:25.936Z,11.68
2023-02-11T03:58:53.866Z,14.20
2023-02-11T04:01:21.801Z,12.18
2023-02-11T04:03:49.544Z,13.65
2023-02-11T04:06:17.253Z,12.15
2023-02-11T04:08:44.974Z,10.32
2023-02-11T04:11:12.638Z,14.32
2023-02-11T04:13:40.382Z,15.02
2023-02-11T04:16:08.282Z,19.83
2023-02-11T04:18:35.966Z,14.35
2023-02-11T04:21:03.845Z,15.07
2023-02-11T04:23:31.524Z,14.35
2023-02-11T04:25:59.445Z,12.65
2023-02-11T04:28:29.499Z,19.85
2023-02-11T04:30:57.790Z,16.33
2023-02-11T04:33:25.574Z,12.52
2023-02-11T04:35:53.280Z,14.60
2023-02-11T04:38:24.074Z,14.10
2023-02-11T04:40:51.913Z,13.27
2023-02-11T04:43:19.525Z,14.73
2023-02-11T04:45:47.147Z,15.38
2023-02-11T04:48:14.809Z,19.77
2023-02-11T04:50:42.454Z,16.58
2023-02-11T04:53:10.144Z,15.05
2023-02-11T04:55:37.743Z,16.25
2023-02-11T04:58:05.705Z,21.40
2023-02-11T05:00:33.338Z,21.30
2023-02-11T05:03:01.053Z,18.83
2023-02-11T05:05:28.705Z,15.57
2023-02-11T05:07:57.106Z,18.63
2023-02-11T05:10:24.777Z,17.63
2023-02-11T05:12:55.288Z,19.02
2023-02-11T05:15:23.495Z,24.30
2023-02-11T05:17:51.185Z,22.63
2023-02-11T05:20:19.028Z,21.05
2023-02-11T05:22:46.897Z,22.90
2023-02-11T05:25:14.869Z,19.65
2023-02-11T05:27:42.553Z,22.65
2023-02-11T05:30:11.773Z,23.50
2023-02-11T05:32:39.486Z,23.50
2023-02-11T05:35:08.288Z,24.55
2023-02-11T05:37:36.352Z,23.05
2023-02-11T05:40:04.933Z,19.23
2023-02-11T05:42:32.593Z,31.35
2023-02-11T05:45:00.345Z,26.38
2023-02-11T05:47:28.166Z,25.98
2023-02-11T05:49:55.838Z,22.73
2023-02-11T05:52:24.332Z,22.73
2023-02-11T05:54:52.169Z,23.55
2023-02-11T05:57:19.828Z,25.98
2023-02-11T05:59:47.526Z,21.20
2023-02-11T06:02:15.664Z,24.25
2023-02-11T06:04:44.350Z,22.45
2023-02-11T06:07:11.974Z,27.58
2023-02-11T06:09:39.657Z,28.25
2023-02-11T06:12:07.544Z,29.20
2023-02-11T06:14:35.691Z,24.80
2023-02-11T06:17:04.039Z,19.50
2023-02-11T06:19:31.755Z,22.10
2023-02-11T06:21:59.435Z,21.60
2023-02-11T06:24:51.047Z,26.77
2023-02-11T06:27:14.853Z,30.35
2023-02-11T06:29:42.539Z,21.65
2023-02-11T06:32:23.340Z,25.17
2023-02-11T06:34:57.794Z,29.38
2023-02-11T06:37:25.504Z,24.60
2023-02-11T06:39:53.246Z,22.85
2023-02-11T06:42:20.909Z,22.80
2023-02-11T06:44:48.536Z,24.30
2023-02-11T06:47:16.182Z,23.80
2023-02-11T06:49:43.929Z,25.23
2023-02-11T06:52:11.661Z,24.08
2023-02-11T06:54:39.361Z,30.25
2023-02-11T06:57:06.950Z,26.13
2023-02-11T06:59:34.647Z,25.52
2023-02-11T07:02:02.343Z,25.20
2023-02-11T07:04:30.070Z,28.85
2023-02-11T07:06:57.736Z,28.20
2023-02-11T07:09:25.464Z,26.65
2023-02-11T07:11:53.321Z,27.15
2023-02-11T07:14:21.037Z,29.67
2023-02-11T07:16:48.713Z,26.05
2023-02-11T07:19:16.370Z,31.30
2023-02-11T07:21:43.963Z,29.50
2023-02-11T07:24:11.714Z,32.60
2023-02-11T07:26:39.462Z,32.00
2023-02-11T07:29:07.278Z,32.83
2023-02-11T07:31:35.049Z,32.40
2023-02-11T07:34:03.372Z,36.78
2023-02-11T07:36:32.311Z,37.22
2023-02-11T07:39:00.373Z,43.17
2023-02-11T07:41:28.437Z,55.38
2023-02-11T07:43:56.524Z,56.05
2023-02-11T07:46:27.323Z,45.00
2023-02-11T07:48:56.001Z,45.78
2023-02-11T07:51:27.793Z,46.22
2023-02-11T07:53:58.529Z,42.42
2023-02-11T07:56:26.331Z,45.65
2023-02-11T07:58:55.376Z,52.22
2023-02-11T08:01:28.342Z,40.72
2023-02-11T08:03:58.809Z,45.53
2023-02-11T08:06:30.157Z,54.38
2023-02-11T08:08:58.696Z,53.35
2023-02-11T08:11:28.811Z,66.10
2023-02-11T08:13:57.114Z,62.50
2023-02-11T08:16:26.715Z,58.03
2023-02-11T08:18:57.732Z,61.47
2023-02-11T08:21:26.312Z,60.03
2023-02-11T08:23:54.250Z,64.63
2023-02-11T08:26:29.103Z,58.88
2023-02-11T08:28:58.205Z,71.70
2023-02-11T08:31:33.374Z,76.88
2023-02-11T08:34:02.477Z,74.63
2023-02-11T08:36:34.360Z,74.47
2023-02-11T08:39:22.198Z,83.70
2023-02-11T08:41:53.649Z,67.75
2023-02-11T08:44:22.692Z,80.03
2023-02-11T08:46:51.696Z,79.80
2023-02-11T08:49:19.691Z,80.05
2023-02-11T08:51:48.594Z,78.72
2023-02-11T08:54:16.558Z,68.57
2023-02-11T08:56:44.572Z,78.15
2023-02-11T08:59:15.381Z,77.10
2023-02-11T09:01:44.347Z,73.75
2023-02-11T09:04:12.295Z,76.15
2023-02-11T09:06:40.488Z,80.15
2023-02-11T09:09:13.634Z,82.18
2023-02-11T09:11:42.739Z,78.28
2023-02-11T09:14:19.557Z,72.85
2023-02-11T09:16:47.712Z,75.28
2023-02-11T09:19:15.553Z,75.63
2023-02-11T09:21:43.477Z,75.63
2023-02-11T09:24:11.763Z,80.10
2023-02-11T09:26:42.389Z,76.63
2023-02-11T09:29:10.306Z,78.22
2023-02-11T09:31:38.075Z,80.30
2023-02-11T09:34:07.209Z,90.63
2023-02-11T09:36:38.808Z,72.70
2023-02-11T09:39:12.412Z,73.03
2023-02-11T09:42:02.370Z,79.50
2023-02-11T09:44:34.599Z,83.47
2023-02-11T09:47:16.180Z,73.40
2023-02-11T09:49:56.187Z,77.68
2023-02-11T09:52:55.901Z,70.55
2023-02-11T09:55:39.702Z,64.50
2023-02-11T09:58:34.813Z,68.22
2023-02-11T10:01:46.435Z,71.18
2023-02-11T10:05:11.969Z,67.20
2023-02-11T10:08:16.585Z,64.20
2023-02-11T10:10:59.718Z,59.53
2023-02-11T10:13:46.743Z,66.70
2023-02-11T10:16:23.330Z,63.47
2023-02-11T10:19:11.397Z,59.97
2023-02-11T10:22:08.939Z,60.85
2023-02-11T10:24:37.655Z,64.38
2023-02-11T10:27:29.171Z,58.55
2023-02-11T10:30:10.538Z,60.40
2023-02-11T10:33:14.074Z,54.97
2023-02-11T10:35:43.931Z,61.03
2023-02-11T10:38:12.408Z,66.32
2023-02-11T10:40:40.597Z,60.72
2023-02-11T10:43:15.635Z,49.08
2023-02-11T10:45:51.318Z,54.70
2023-02-11T10:51:22.479Z,48.92
2023-02-11T10:54:06.211Z,54.63
2023-02-11T10:56:41.682Z,47.20
2023-02-11T10:59:21.135Z,54.78
2023-02-11T11:01:57.524Z,50.03
2023-02-11T11:04:32.193Z,49.85
2023-02-11T11:07:23.978Z,55.22
2023-02-11T11:10:36.156Z,49.50
2023-02-11T11:13:03.919Z,48.72
2023-02-11T11:15:32.583Z,46.60
2023-02-11T11:18:22.344Z,43.90
2023-02-11T11:21:01.583Z,47.92
2023-02-11T11:23:33.002Z,41.63
2023-02-11T11:26:16.054Z,40.72
2023-02-11T11:29:07.233Z,42.53
2023-02-11T11:31:56.994Z,43.75
2023-02-11T11:34:32.106Z,46.22
2023-02-11T11:37:10.721Z,45.53
2023-02-11T11:39:40.803Z,41.97
2023-02-11T11:42:32.838Z,40.55
2023-02-11T11:45:25.871Z,43.80
2023-02-11T11:48:28.889Z,39.88
2023-02-11T11:51:00.464Z,44.42
2023-02-11T11:53:39.402Z,39.67
2023-02-11T11:56:27.325Z,39.70
2023-02-11T11:58:55.095Z,38.53
2023-02-11T12:01:22.712Z,37.15
2023-02-11T12:04:20.444Z,37.63
2023-02-11T12:07:23.979Z,41.63
2023-02-11T12:10:29.187Z,39.97
2023-02-11T12:13:18.515Z,41.20
2023-02-11T12:16:00.908Z,36.97
2023-02-11T12:19:10.160Z,40.30
2023-02-11T12:22:11.204Z,37.53
2023-02-11T12:25:27.765Z,37.92
2023-02-11T12:28:07.343Z,36.63
2023-02-11T12:30:59.561Z,39.33
2023-02-11T12:33:53.140Z,37.63
2023-02-11T12:36:36.462Z,44.55
2023-02-11T12:39:34.014Z,36.65
2023-02-11T12:43:16.516Z,39.60
2023-02-11T12:46:08.098Z,33.38
2023-02-11T12:48:44.738Z,36.35
2023-02-11T12:51:32.705Z,36.03
2023-02-11T12:54:28.473Z,33.28
2023-02-11T12:57:02.262Z,31.80
2023-02-11T12:59:41.931Z,37.88
2023-02-11T13:02:28.963Z,34.58
2023-02-11T13:05:41.359Z,34.97
2023-02-11T13:08:21.213Z,31.27
2023-02-11T13:11:19.236Z,34.22
2023-02-11T13:14:01.012Z,35.10
2023-02-11T13:16:48.574Z,35.55
2023-02-11T13:19:53.085Z,35.17
2023-02-11T13:22:46.710Z,30.83
2023-02-11T13:26:30.061Z,41.83
2023-02-11T13:29:32.057Z,34.78
2023-02-11T13:32:14.533Z,35.00
2023-02-11T13:34:42.114Z,29.38
2023-02-11T13:37:38.646Z,32.80
2023-02-11T13:42:52.760Z,32.83
2023-02-11T13:45:43.891Z,29.63
2023-02-11T13:48:25.801Z,29.13
2023-02-11T13:51:01.216Z,26.08
2023-02-11T13:53:30.426Z,26.13
2023-02-11T13:56:30.601Z,28.80
2023-02-11T13:59:02.859Z,31.35
2023-02-11T14:02:28.375Z,27.23
2023-02-11T14:05:23.637Z,30.33
2023-02-11T14:08:28.483Z,34.00
2023-02-11T14:11:08.461Z,30.02
2023-02-11T14:13:57.955Z,26.08
2023-02-11T14:16:37.343Z,26.10
2023-02-11T14:19:06.358Z,25.63
2023-02-11T14:21:40.367Z,25.23
2023-02-11T14:24:14.721Z,27.85
2023-02-11T14:27:00.227Z,26.95
2023-02-11T14:29:51.905Z,29.33
2023-02-11T14:33:03.886Z,28.58
2023-02-11T14:36:20.289Z,32.47
2023-02-11T14:39:15.579Z,27.27
2023-02-11T14:41:48.018Z,24.88
2023-02-11T14:44:25.958Z,30.67
2023-02-11T14:46:55.431Z,27.55
2023-02-11T14:49:34.865Z,24.10
2023-02-11T14:52:26.310Z,28.00
2023-02-11T14:55:07.544Z,25.75
2023-02-11T14:57:35.284Z,29.88
2023-02-11T15:00:16.482Z,26.75
2023-02-11T15:02:45.277Z,23.58
2023-02-11T15:05:26.063Z,23.88
2023-02-11T15:08:02.085Z,24.67
2023-02-11T15:10:43.228Z,27.67
2023-02-11T15:13:20.596Z,25.95
2023-02-11T15:15:50.922Z,29.92
2023-02-11T15:18:24.292Z,22.45
2023-02-11T15:20:52.638Z,24.60
2023-02-11T15:23:27.448Z,24.52
2023-02-11T15:25:58.132Z,22.95
2023-02-11T15:28:32.020Z,25.08
2023-02-11T15:31:14.543Z,23.30
2023-02-11T15:33:42.712Z,28.23
2023-02-11T15:36:13.719Z,24.73
2023-02-11T15:38:41.572Z,24.15
2023-02-11T15:41:37.573Z,30.17
2023-02-11T15:44:05.333Z,26.33
2023-02-11T15:46:40.883Z,24.38
2023-02-11T15:49:19.251Z,25.55
2023-02-11T15:51:47.428Z,28.23
2023-02-11T15:54:26.863Z,24.65
2023-02-11T15:57:08.410Z,26.48
2023-02-11T15:59:46.238Z,22.17
2023-02-11T16:02:31.688Z,26.77
2023-02-11T16:05:09.486Z,25.85
2023-02-11T16:07:47.089Z,24.50
2023-02-11T16:10:20.671Z,20.92
2023-02-11T16:12:56.511Z,23.48
2023-02-11T16:15:50.902Z,30.70
2023-02-11T16:18:38.397Z,28.05
2023-02-11T16:21:16.968Z,26.33
2023-02-11T16:23:53.521Z,23.48
2023-02-11T16:26:33.084Z,30.17
2023-02-11T16:29:25.952Z,24.98
2023-02-11T16:32:06.372Z,26.00
2023-02-11T16:34:34.228Z,31.95
2023-02-11T16:37:05.407Z,25.40
2023-02-11T16:39:33.834Z,26.00
2023-02-11T16:42:02.225Z,24.27
2023-02-11T16:44:30.421Z,25.58
2023-02-11T16:47:06.107Z,22.88
2023-02-11T16:49:41.109Z,26.45
2023-02-11T16:52:14.984Z,27.10
2023-02-11T16:54:42.813Z,32.40
2023-02-11T16:57:36.870Z,33.15
2023-02-11T17:00:07.476Z,33.05
2023-02-11T17:02:37.576Z,28.48
2023-02-11T17:05:11.993Z,30.80
2023-02-11T17:07:39.604Z,26.92
2023-02-11T17:10:27.652Z,29.35
2023-02-11T17:12:55.374Z,25.70
2023-02-11T17:15:23.115Z,26.80
2023-02-11T17:17:50.714Z,29.63
2023-02-11T17:20:18.886Z,32.80
2023-02-11T17:22:46.584Z,34.00
2023-02-11T17:25:14.295Z,33.10
2023-02-11T17:27:42.259Z,33.72
2023-02-11T17:30:11.620Z,28.35
2023-02-11T17:32:39.237Z,30.75
2023-02-11T17:35:07.539Z,34.00
2023-02-11T17:37:35.248Z,40.90
2023-02-11T17:40:03.244Z,35.78
2023-02-11T17:42:31.364Z,36.95
2023-02-11T17:44:59.057Z,35.70
2023-02-11T17:47:26.723Z,29.10
2023-02-11T17:49:54.453Z,29.77
2023-02-11T17:52:24.246Z,34.53
2023-02-11T17:54:51.983Z,30.58
2023-02-11T17:57:20.087Z,28.85
2023-02-11T17:59:47.890Z,31.02
2023-02-11T18:02:16.061Z,33.63
2023-02-11T18:04:44.423Z,30.35
2023-02-11T18:07:12.328Z,34.85
2023-02-11T18:09:41.303Z,31.58
2023-02-11T18:12:09.231Z,34.22
2023-02-11T18:14:41.106Z,36.88
2023-02-11T18:17:09.217Z,31.60
2023-02-11T18:19:37.624Z,30.58
2023-02-11T18:22:05.698Z,28.83
2023-02-11T18:24:33.313Z,35.10
2023-02-11T18:27:01.178Z,30.33
2023-02-11T18:29:28.974Z,37.60
2023-02-11T18:31:57.506Z,38.88
2023-02-11T18:34:26.227Z,34.92
2023-02-11T18:36:54.182Z,35.90
2023-02-11T18:39:24.248Z,35.35
2023-02-11T18:41:55.070Z,32.28
2023-02-11T18:44:24.685Z,44.00
2023-02-11T18:46:53.249Z,36.30
2023-02-11T18:49:20.977Z,30.65
2023-02-11T18:51:48.702Z,33.53
2023-02-11T18:54:16.338Z,32.03
2023-02-11T18:56:44.014Z,33.03
2023-02-11T18:59:12.637Z,36.30
2023-02-11T19:01:43.327Z,36.63
2023-02-11T19:04:11.439Z,32.55
2023-02-11T19:06:39.941Z,31.70
2023-02-11T19:09:11.227Z,34.15
2023-02-11T19:11:54.133Z,26.13
2023-02-11T19:14:23.078Z,44.70
2023-02-11T19:16:53.582Z,34.85
2023-02-11T19:19:24.407Z,33.67
2023-02-11T19:21:52.283Z,32.78
2023-02-11T19:24:20.726Z,31.65
2023-02-11T19:26:50.525Z,36.85
2023-02-11T19:29:18.774Z,28.60
2023-02-11T19:31:47.075Z,31.83
2023-02-11T19:34:16.943Z,35.33
2023-02-11T19:36:44.643Z,41.85
2023-02-11T19:39:12.670Z,28.80
2023-02-11T19:41:40.551Z,28.80
2023-02-11T19:44:09.589Z,33.05
2023-02-11T19:46:40.953Z,34.90
2023-02-11T19:49:10.062Z,35.65
2023-02-11T19:51:39.330Z,35.13
2023-02-11T19:54:07.596Z,32.72
2023-02-11T19:56:37.877Z,39.35
2023-02-11T19:59:08.871Z,37.40
2023-02-11T20:01:37.139Z,44.28
2023-02-11T20:04:05.412Z,42.22
2023-02-11T20:06:35.184Z,39.90
2023-02-11T20:09:07.687Z,37.80
2023-02-11T20:11:37.013Z,40.33
2023-02-11T20:14:06.823Z,41.50
2023-02-11T20:16:47.611Z,38.08
2023-02-11T20:19:21.536Z,39.10
2023-02-11T20:21:55.994Z,40.22
2023-02-11T20:24:25.250Z,32.55
2023-02-11T20:26:56.118Z,37.08
2023-02-11T20:29:25.776Z,36.03
2023-02-11T20:31:54.565Z,36.72
2023-02-11T20:34:22.462Z,33.67
2023-02-11T20:36:53.108Z,43.63
2023-02-11T20:39:23.729Z,31.10
2023-02-11T20:41:53.318Z,37.92
2023-02-11T20:44:22.490Z,36.28
2023-02-11T20:46:51.508Z,40.00
2023-02-11T20:49:23.655Z,35.55
2023-02-11T20:51:53.685Z,30.52
2023-02-11T20:54:23.498Z,28.35
2023-02-11T20:56:53.643Z,31.08
2023-02-11T20:59:22.607Z,37.83
2023-02-11T21:01:54.082Z,35.88
2023-02-11T21:04:29.578Z,34.65
2023-02-11T21:07:00.486Z,38.80
2023-02-11T21:09:31.494Z,31.95
2023-02-11T21:12:00.594Z,37.45
2023-02-11T21:14:28.364Z,35.35
2023-02-11T21:16:56.435Z,32.67
2023-02-11T21:19:24.434Z,28.23
2023-02-11T21:21:52.502Z,34.55
2023-02-11T21:24:20.289Z,33.92
2023-02-11T21:26:47.999Z,31.63
2023-02-11T21:29:15.733Z,32.83
2023-02-11T21:31:43.546Z,34.45
2023-02-11T21:34:11.572Z,33.83
2023-02-11T21:36:39.258Z,35.40
2023-02-11T21:39:07.018Z,31.90
2023-02-11T21:41:35.208Z,36.88
2023-02-11T21:44:02.869Z,31.58
2023-02-11T21:46:31.124Z,34.83
2023-02-11T21:49:00.353Z,33.97
2023-02-11T21:51:28.124Z,31.80
2023-02-11T21:54:03.668Z,33.58
2023-02-11T21:56:33.691Z,31.88
2023-02-11T21:59:01.456Z,30.75
2023-02-11T22:01:33.141Z,29.92
2023-02-11T22:04:02.203Z,29.80
2023-02-11T22:06:34.063Z,33.25
2023-02-11T22:09:07.895Z,27.00
2023-02-11T22:11:35.885Z,27.63
2023-02-11T22:14:03.907Z,27.40
2023-02-11T22:16:31.749Z,30.40
2023-02-11T22:19:02.303Z,30.50
2023-02-11T22:21:30.398Z,33.80
2023-02-11T22:23:58.153Z,35.08
2023-02-11T22:26:27.871Z,33.00
2023-02-11T22:28:56.817Z,31.02
2023-02-11T22:31:28.773Z,32.63
2023-02-11T22:33:57.807Z,33.28
2023-02-11T22:36:32.589Z,31.70
2023-02-11T22:39:07.830Z,32.53
2023-02-11T22:41:35.551Z,26.10
2023-02-11T22:44:03.190Z,31.80
2023-02-11T22:46:30.948Z,29.15
2023-02-11T22:48:58.664Z,30.42
2023-02-11T22:51:30.057Z,29.83
2023-02-11T22:54:04.758Z,24.80
2023-02-11T22:56:34.873Z,29.55
2023-02-11T22:59:07.192Z,29.38
2023-02-11T23:01:35.534Z,27.00
2023-02-11T23:04:06.396Z,32.33
2023-02-11T23:06:34.874Z,33.80
2023-02-11T23:09:05.694Z,30.35
2023-02-11T23:11:35.409Z,30.23
2023-02-11T23:14:04.116Z,36.53
2023-02-11T23:16:34.665Z,33.72
2023-02-11T23:19:06.944Z,38.70
2023-02-11T23:21:38.149Z,28.98
2023-02-11T23:24:11.691Z,31.95
2023-02-11T23:26:41.685Z,27.40
2023-02-11T23:29:10.368Z,30.55
2023-02-11T23:31:40.680Z,28.17
2023-02-11T23:34:09.471Z,30.33
2023-02-11T23:36:37.596Z,26.52
2023-02-11T23:39:05.576Z,28.92
2023-02-11T23:41:33.264Z,34.38
2023-02-11T23:44:00.998Z,26.88
2023-02-11T23:46:28.940Z,26.92
2023-02-11T23:48:56.759Z,29.55
2023-02-11T23:51:24.767Z,30.38
2023-02-11T23:53:54.163Z,31.77
2023-02-11T23:56:25.952Z,30.02
2023-02-11T23:58:57.507Z,27.92
